Time;durP1;ratioP1;P1;durP2;ratioP2;P2;SDS_P1;SDS_P2;PMS_P1;PMS_P2;Temp;Humidity;BMP_temperature;BMP_pressure;BME280_temperature;BME280_humidity;BME280_pressure;Samples;Min_cycle;Max_cycle;Signal;HPM_P1;HPM_P2
2023/04/04 00:01:31;;;;;;;5.50;3.03;;;;;;;-0.23;71.98;102913.09;4898502;29;20036;-83
2023/04/04 00:03:57;;;;;;;9.80;3.47;;;;;;;-0.25;71.87;102913.78;4884532;29;20036;-82
2023/04/04 00:06:23;;;;;;;8.35;3.65;;;;;;;-0.25;72.14;102911.22;4882839;29;20115;-82
2023/04/04 00:09:11;;;;;;;8.32;3.63;;;;;;;-0.21;71.83;102920.94;4882214;29;20044;-82
2023/04/04 00:11:37;;;;;;;7.38;3.58;;;;;;;-0.27;72.50;102926.56;4915150;29;20036;-83
2023/04/04 00:14:04;;;;;;;7.93;3.45;;;;;;;-0.33;72.33;102921.03;4882488;29;20040;-83
2023/04/04 00:16:30;;;;;;;6.55;3.50;;;;;;;-0.29;72.11;102928.13;4867298;29;20113;-83
2023/04/04 00:18:55;;;;;;;10.35;3.88;;;;;;;-0.31;72.09;102929.72;4914796;29;20130;-83
2023/04/04 00:21:22;;;;;;;8.57;3.47;;;;;;;-0.31;72.10;102928.84;4880303;29;20036;-79
2023/04/04 00:23:48;;;;;;;8.20;3.75;;;;;;;-0.32;71.48;102922.78;4908472;29;20040;-79
2023/04/04 00:26:13;;;;;;;7.88;3.10;;;;;;;-0.27;72.34;102920.53;4912016;29;20103;-79
2023/04/04 00:28:39;;;;;;;8.40;3.50;;;;;;;-0.22;71.82;102921.72;4881204;29;20436;-79
2023/04/04 00:31:05;;;;;;;7.28;3.22;;;;;;;-0.21;71.48;102926.97;4880565;29;20037;-79
2023/04/04 00:33:30;;;;;;;13.15;3.92;;;;;;;-0.19;71.58;102922.81;4882242;29;20076;-79
2023/04/04 00:35:55;;;;;;;7.88;3.25;;;;;;;-0.20;72.33;102927.88;4879443;29;20485;-79
2023/04/04 00:38:21;;;;;;;8.48;3.67;;;;;;;-0.21;71.80;102931.25;4916026;29;20055;-79
2023/04/04 00:40:49;;;;;;;5.82;3.08;;;;;;;-0.22;71.54;102930.31;4917469;29;20044;-79
2023/04/04 00:43:16;;;;;;;6.75;3.50;;;;;;;-0.26;71.74;102918.06;4901084;29;20040;-79
2023/04/04 00:45:42;;;;;;;8.25;3.30;;;;;;;-0.22;71.67;102921.72;4886068;29;20040;-79
2023/04/04 00:48:07;;;;;;;5.25;3.03;;;;;;;-0.23;71.69;102930.22;4901538;29;20036;-79
2023/04/04 00:50:33;;;;;;;9.02;3.72;;;;;;;-0.24;71.93;102920.75;4883611;29;20051;-79
2023/04/04 00:52:58;;;;;;;8.23;3.45;;;;;;;-0.26;71.57;102917.16;4869084;29;20397;-79
2023/04/04 00:55:25;;;;;;;7.63;3.00;;;;;;;-0.26;71.30;102914.56;4900351;29;20032;-79
2023/04/04 00:57:51;;;;;;;7.22;3.28;;;;;;;-0.28;71.45;102918.75;4901728;29;20639;-83
2023/04/04 01:00:18;;;;;;;7.82;3.17;;;;;;;-0.29;71.48;102917.84;4885588;29;20036;-82
2023/04/04 01:02:43;;;;;;;7.55;3.53;;;;;;;-0.30;71.05;102917.72;4886807;29;20154;-83
2023/04/04 01:05:11;;;;;;;8.90;3.92;;;;;;;-0.29;71.86;102924.69;4905206;29;20127;-82
2023/04/04 01:07:38;;;;;;;5.03;3.40;;;;;;;-0.35;71.53;102923.47;4885725;29;20441;-83
2023/04/04 01:10:04;;;;;;;6.07;3.60;;;;;;;-0.33;71.31;102926.19;4869596;29;20047;-82
2023/04/04 01:12:30;;;;;;;7.07;3.05;;;;;;;-0.36;71.90;102926.84;4886457;29;20083;-82
2023/04/04 01:14:56;;;;;;;6.70;3.47;;;;;;;-0.40;71.46;102913.69;4902218;29;20071;-82
2023/04/04 01:17:22;;;;;;;9.30;3.60;;;;;;;-0.39;71.52;102906.06;4885239;29;20128;-79
2023/04/04 01:20:10;;;;;;;7.00;3.65;;;;;;;-0.41;72.36;102902.47;4903302;29;20063;-79
2023/04/04 01:22:37;;;;;;;7.38;3.65;;;;;;;-0.42;72.94;102898.09;4920700;29;20044;-79
2023/04/04 01:25:04;;;;;;;9.63;3.80;;;;;;;-0.44;72.26;102896.22;4913903;29;20036;-79
2023/04/04 01:27:30;;;;;;;8.38;3.80;;;;;;;-0.48;72.22;102900.28;4903210;29;20127;-79
2023/04/04 01:29:59;;;;;;;8.65;3.92;;;;;;;-0.49;72.08;102906.19;4885089;29;20044;-79
2023/04/04 01:32:35;;;;;;;9.98;4.20;;;;;;;-0.51;71.89;102900.06;4885608;29;20092;-79
2023/04/04 01:35:20;;;;;;;7.97;4.38;;;;;;;-0.52;71.97;102903.44;4915364;29;20095;-79
2023/04/04 01:38:05;;;;;;;8.70;3.55;;;;;;;-0.60;72.02;102896.91;4897494;29;20067;-79
2023/04/04 01:40:38;;;;;;;9.82;3.58;;;;;;;-0.64;72.94;102894.91;4914007;29;20048;-79
2023/04/04 01:43:03;;;;;;;12.93;3.97;;;;;;;-0.70;72.63;102890.22;4899667;29;20043;-84
2023/04/04 01:45:29;;;;;;;7.10;3.90;;;;;;;-0.74;72.36;102896.84;4885498;29;20413;-83
2023/04/04 01:47:58;;;;;;;8.20;3.78;;;;;;;-0.78;72.91;102889.69;4886971;29;20488;-83
2023/04/04 01:50:24;;;;;;;8.32;3.95;;;;;;;-0.82;73.38;102886.81;4895277;29;20100;-83
2023/04/04 01:52:50;;;;;;;7.75;3.85;;;;;;;-0.88;74.08;102887.28;4880728;29;20517;-83
2023/04/04 01:55:16;;;;;;;7.40;3.40;;;;;;;-0.95;73.82;102891.16;4916702;29;20036;-83
2023/04/04 01:57:41;;;;;;;8.75;3.95;;;;;;;-0.95;74.28;102890.22;4898413;29;20147;-79
2023/04/04 02:00:09;;;;;;;8.43;3.60;;;;;;;-1.00;74.39;102892.50;4884182;29;20036;-79
2023/04/04 02:02:35;;;;;;;9.15;3.65;;;;;;;-0.98;74.14;102892.59;4884441;29;20369;-79
2023/04/04 02:05:01;;;;;;;8.48;4.18;;;;;;;-1.00;74.12;102889.06;4899052;29;20044;-79
2023/04/04 02:07:27;;;;;;;9.93;4.32;;;;;;;-1.02;74.46;102894.09;4883703;29;20135;-79
2023/04/04 02:09:52;;;;;;;8.15;4.00;;;;;;;-1.06;74.31;102892.97;4885596;29;20044;-79
2023/04/04 02:12:18;;;;;;;11.80;4.25;;;;;;;-1.01;74.35;102889.81;4883489;29;20516;-79
2023/04/04 02:14:44;;;;;;;8.57;4.20;;;;;;;-1.07;74.44;102891.19;4884500;29;20039;-79
2023/04/04 02:17:09;;;;;;;7.45;4.20;;;;;;;-1.10;74.24;102890.97;4883442;29;20162;-79
2023/04/04 02:19:35;;;;;;;7.57;3.95;;;;;;;-1.11;74.06;102893.44;4899688;29;20036;-79
2023/04/04 02:22:00;;;;;;;7.57;3.95;;;;;;;-1.10;74.25;102890.97;4883377;29;20048;-79
2023/04/04 02:24:26;;;;;;;7.65;4.05;;;;;;;-1.08;74.66;102903.94;4883198;29;20051;-79
2023/04/04 02:26:51;;;;;;;7.82;3.92;;;;;;;-1.11;74.48;102896.00;4883854;29;20622;-79
2023/04/04 02:29:17;;;;;;;10.93;4.28;;;;;;;-1.12;75.47;102907.09;4882335;29;20504;-79
2023/04/04 02:31:43;;;;;;;9.30;3.78;;;;;;;-1.20;75.37;102913.41;4884093;29;20039;-79
2023/04/04 02:34:08;;;;;;;8.82;3.83;;;;;;;-1.26;74.96;102908.72;4900192;29;20145;-79
2023/04/04 02:36:34;;;;;;;13.48;4.47;;;;;;;-1.34;74.81;102910.72;4897661;29;20449;-79
2023/04/04 02:38:59;;;;;;;10.57;3.72;;;;;;;-1.40;74.81;102907.75;4882072;29;20075;-79
2023/04/04 02:41:44;;;;;;;9.80;4.95;;;;;;;-1.41;75.01;102912.00;4883351;29;20557;-79
2023/04/04 02:44:09;;;;;;;10.13;4.28;;;;;;;-1.47;75.72;102906.41;4910354;29;20075;-79
2023/04/04 02:46:35;;;;;;;7.82;3.78;;;;;;;-1.49;75.00;102910.56;4882950;29;20500;-80
2023/04/04 02:49:00;;;;;;;7.45;4.30;;;;;;;-1.50;74.95;102898.47;4884546;29;20084;-79
2023/04/04 02:51:26;;;;;;;9.65;4.40;;;;;;;-1.49;75.63;102905.41;4898190;29;20043;-79
2023/04/04 02:53:52;;;;;;;6.70;3.90;;;;;;;-1.48;75.53;102896.00;4897999;29;20036;-82
2023/04/04 02:56:17;;;;;;;10.70;3.90;;;;;;;-1.47;75.63;102900.38;4883191;29;20130;-82
2023/04/04 02:58:42;;;;;;;10.52;4.35;;;;;;;-1.46;75.12;102894.47;4883354;29;20529;-82
2023/04/04 03:01:08;;;;;;;8.90;3.92;;;;;;;-1.49;75.28;102895.13;4881515;29;20046;-81
2023/04/04 03:03:33;;;;;;;10.65;4.30;;;;;;;-1.44;75.42;102896.38;4899937;29;20538;-82
2023/04/04 03:05:59;;;;;;;8.77;4.30;;;;;;;-1.45;75.45;102892.00;4882553;29;20544;-82
2023/04/04 03:08:27;;;;;;;9.05;4.30;;;;;;;-1.44;75.43;102891.22;4899661;29;20433;-79
2023/04/04 03:10:52;;;;;;;6.97;4.18;;;;;;;-1.43;75.98;102890.41;4898927;29;20055;-80
2023/04/04 03:13:17;;;;;;;7.95;4.00;;;;;;;-1.42;75.84;102881.91;4884227;29;20039;-80
2023/04/04 03:15:43;;;;;;;8.00;4.30;;;;;;;-1.47;75.82;102882.38;4882716;29;20048;-79
2023/04/04 03:18:09;;;;;;;7.90;4.53;;;;;;;-1.44;75.48;102888.66;4867731;29;20055;-80
2023/04/04 03:20:34;;;;;;;6.03;3.55;;;;;;;-1.43;75.64;102889.53;4915778;29;20127;-80
2023/04/04 03:23:00;;;;;;;9.10;4.47;;;;;;;-1.46;75.62;102895.34;4899310;29;20044;-82
2023/04/04 03:25:25;;;;;;;9.27;4.10;;;;;;;-1.51;75.23;102888.97;4884404;29;20063;-83
2023/04/04 03:27:51;;;;;;;7.97;3.88;;;;;;;-1.54;75.31;102886.19;4882680;29;20138;-83
2023/04/04 03:30:16;;;;;;;9.93;4.22;;;;;;;-1.53;74.95;102887.09;4897205;29;20047;-83
2023/04/04 03:32:42;;;;;;;8.40;4.35;;;;;;;-1.57;75.37;102885.97;4896085;29;20103;-83
2023/04/04 03:35:08;;;;;;;6.75;3.97;;;;;;;-1.61;75.59;102879.75;4881749;29;20473;-83
2023/04/04 03:37:34;;;;;;;7.78;3.88;;;;;;;-1.63;75.14;102891.56;4882206;29;20123;-83
2023/04/04 03:40:00;;;;;;;8.05;4.10;;;;;;;-1.67;75.10;102881.84;4897550;29;20096;-83
2023/04/04 03:42:25;;;;;;;7.70;3.95;;;;;;;-1.66;76.09;102880.19;4913295;29;20493;-83
2023/04/04 03:44:52;;;;;;;10.18;4.30;;;;;;;-1.65;76.31;102879.38;4884039;29;20139;-83
2023/04/04 03:47:18;;;;;;;7.85;4.10;;;;;;;-1.65;76.02;102881.97;4897899;29;20040;-83
2023/04/04 03:49:43;;;;;;;9.68;4.30;;;;;;;-1.72;75.62;102879.75;4866864;29;20351;-83
2023/04/04 03:52:09;;;;;;;8.57;4.20;;;;;;;-1.71;76.64;102871.25;4896374;29;20542;-82
2023/04/04 03:54:34;;;;;;;7.88;4.20;;;;;;;-1.75;76.84;102868.47;4883438;29;20523;-82
2023/04/04 03:57:00;;;;;;;6.15;3.78;;;;;;;-1.83;77.13;102854.16;4886272;29;20044;-82
2023/04/04 03:59:25;;;;;;;10.13;4.45;;;;;;;-1.81;76.85;102869.69;4883537;29;20032;-83
2023/04/04 04:01:53;;;;;;;11.18;4.38;;;;;;;-1.86;76.51;102866.81;4867589;29;20040;-82
2023/04/04 04:04:18;;;;;;;16.90;4.70;;;;;;;-1.84;76.73;102864.34;4866111;29;20058;-82
2023/04/04 04:06:44;;;;;;;7.80;4.50;;;;;;;-1.89;77.26;102864.03;4883392;29;20551;-81
2023/04/04 04:09:12;;;;;;;9.82;4.60;;;;;;;-1.89;77.60;102868.28;4908615;29;20064;-81
2023/04/04 04:11:37;;;;;;;7.70;4.25;;;;;;;-1.90;77.42;102861.34;4871365;29;20135;-81
2023/04/04 04:14:03;;;;;;;9.25;4.47;;;;;;;-1.86;77.09;102871.06;4884021;29;20126;-82
2023/04/04 04:16:31;;;;;;;10.35;5.00;;;;;;;-1.89;76.78;102869.16;4884594;29;20065;-81
2023/04/04 04:18:57;;;;;;;7.97;4.10;;;;;;;-1.89;77.44;102869.16;4898177;29;20029;-82
2023/04/04 04:21:23;;;;;;;11.02;4.82;;;;;;;-1.90;77.49;102867.38;4914909;29;20047;-82
2023/04/04 04:23:48;;;;;;;9.02;4.88;;;;;;;-1.92;77.25;102859.53;4880169;29;20051;-81
2023/04/04 04:26:13;;;;;;;8.32;4.55;;;;;;;-1.92;77.36;102867.25;4902527;29;20381;-82
2023/04/04 04:28:39;;;;;;;6.93;4.75;;;;;;;-2.00;77.43;102857.22;4915320;29;20044;-82
2023/04/04 04:31:06;;;;;;;14.55;5.15;;;;;;;-1.98;77.48;102858.22;4887713;29;20044;-82
2023/04/04 04:33:31;;;;;;;9.63;4.88;;;;;;;-1.96;77.34;102860.09;4877251;29;20509;-82
2023/04/04 04:36:01;;;;;;;8.02;4.82;;;;;;;-1.98;77.21;102866.81;4901406;29;20044;-81
2023/04/04 04:38:27;;;;;;;10.32;5.00;;;;;;;-2.00;77.78;102864.91;4897386;29;20177;-81
2023/04/04 04:40:53;;;;;;;9.90;4.43;;;;;;;-2.01;77.85;102871.75;4887810;29;20040;-79
2023/04/04 04:43:19;;;;;;;7.20;4.50;;;;;;;-2.04;77.23;102865.47;4899616;29;20389;-79
2023/04/04 04:45:44;;;;;;;10.15;5.18;;;;;;;-2.03;77.81;102867.28;4888741;29;20035;-79
2023/04/04 04:48:10;;;;;;;10.02;5.13;;;;;;;-2.05;77.78;102854.31;4868975;29;20544;-79
2023/04/04 04:50:35;;;;;;;14.82;5.60;;;;;;;-2.01;78.09;102865.69;4882081;29;20092;-81
2023/04/04 04:53:01;;;;;;;7.30;4.90;;;;;;;-1.99;77.89;102871.84;4881712;29;20139;-81
2023/04/04 04:55:26;;;;;;;9.48;4.65;;;;;;;-1.98;78.03;102871.09;4900137;29;20127;-81
2023/04/04 04:57:52;;;;;;;10.27;5.13;;;;;;;-2.02;78.26;102869.06;4882586;29;20085;-81
2023/04/04 05:00:24;;;;;;;7.40;4.70;;;;;;;-2.04;78.28;102875.75;4882366;29;20412;-81
2023/04/04 05:02:49;;;;;;;8.52;5.25;;;;;;;-2.06;77.94;102880.78;4882254;29;20036;-82
2023/04/04 05:05:15;;;;;;;8.30;4.75;;;;;;;-2.11;77.88;102880.47;4894672;29;20036;-81
2023/04/04 05:07:45;;;;;;;11.43;5.40;;;;;;;-2.11;77.97;102885.59;4897615;29;20040;-82
2023/04/04 05:10:10;;;;;;;9.23;5.50;;;;;;;-2.13;77.68;102887.13;4906064;29;20083;-82
2023/04/04 05:12:42;;;;;;;10.00;5.75;;;;;;;-2.12;77.99;102891.50;4889417;29;20071;-83
2023/04/04 05:15:08;;;;;;;9.02;5.47;;;;;;;-2.19;77.70;102879.00;4907718;29;20043;-83
2023/04/04 05:17:38;;;;;;;8.98;5.40;;;;;;;-2.13;77.79;102888.81;4882662;29;20037;-83
2023/04/04 05:20:04;;;;;;;9.15;5.22;;;;;;;-2.16;77.85;102891.19;4884633;29;20045;-84
2023/04/04 05:22:30;;;;;;;8.43;5.20;;;;;;;-2.23;77.34;102889.81;4881675;29;20111;-84
2023/04/04 05:24:55;;;;;;;10.93;5.32;;;;;;;-2.24;77.11;102900.91;4876946;29;20445;-84
2023/04/04 05:27:21;;;;;;;10.40;5.10;;;;;;;-2.27;76.99;102898.06;4885315;29;20047;-84
2023/04/04 05:29:47;;;;;;;10.55;5.30;;;;;;;-2.32;76.68;102892.59;4888919;29;20067;-84
2023/04/04 05:32:13;;;;;;;8.77;5.05;;;;;;;-2.36;77.40;102898.28;4885804;29;20134;-84
2023/04/04 05:34:39;;;;;;;10.68;5.50;;;;;;;-2.40;76.69;102888.56;4902523;29;20115;-84
2023/04/04 05:37:04;;;;;;;11.60;5.97;;;;;;;-2.37;78.16;102893.97;4888410;29;20358;-84
2023/04/04 05:39:30;;;;;;;11.85;5.60;;;;;;;-2.34;77.64;102900.97;4886754;29;20485;-83
2023/04/04 05:41:55;;;;;;;7.93;5.10;;;;;;;-2.35;78.13;102891.50;4885886;29;20112;-84
2023/04/04 05:44:21;;;;;;;9.38;5.22;;;;;;;-2.32;78.65;102900.31;4900751;29;20123;-84
2023/04/04 05:46:46;;;;;;;8.98;5.70;;;;;;;-2.24;78.99;102905.13;4886479;29;20135;-84
2023/04/04 05:49:12;;;;;;;10.25;6.78;;;;;;;-2.18;79.01;102898.78;4917976;29;20042;-84
2023/04/04 05:51:39;;;;;;;10.70;5.57;;;;;;;-2.11;79.76;102911.28;4900795;29;20052;-84
2023/04/04 05:54:08;;;;;;;10.82;6.13;;;;;;;-2.04;80.01;102912.63;4885226;29;20066;-84
2023/04/04 05:56:33;;;;;;;10.30;5.43;;;;;;;-1.93;79.59;102916.84;4900807;29;20036;-85
2023/04/04 05:58:59;;;;;;;9.00;5.47;;;;;;;-1.81;80.27;102911.72;4916287;29;20036;-84
2023/04/04 06:01:25;;;;;;;10.50;5.93;;;;;;;-1.69;78.95;102904.00;4914520;29;20365;-85
2023/04/04 06:03:51;;;;;;;11.07;6.10;;;;;;;-1.56;78.77;102900.63;4884372;29;20052;-84
2023/04/04 06:06:17;;;;;;;10.80;6.22;;;;;;;-1.41;78.79;102918.81;4900766;29;20132;-84
2023/04/04 06:08:42;;;;;;;11.57;6.03;;;;;;;-1.25;78.45;102908.81;4900153;29;20043;-84
2023/04/04 06:11:08;;;;;;;9.30;5.82;;;;;;;-1.06;78.53;102913.56;4903794;29;20818;-85
2023/04/04 06:13:33;;;;;;;12.05;6.28;;;;;;;-0.82;78.43;102903.19;4916958;29;20040;-85
2023/04/04 06:15:59;;;;;;;13.55;6.65;;;;;;;-0.52;78.82;102911.16;4885982;29;20489;-84
2023/04/04 06:18:24;;;;;;;9.27;6.30;;;;;;;-0.16;79.01;102918.66;4869200;29;20127;-85
2023/04/04 06:20:50;;;;;;;11.05;6.50;;;;;;;0.19;78.20;102918.38;4903712;29;20051;-85
2023/04/04 06:23:16;;;;;;;12.50;7.25;;;;;;;0.56;78.85;102910.38;4884285;29;20063;-85
2023/04/04 06:25:41;;;;;;;11.57;6.72;;;;;;;0.88;76.09;102919.22;4885007;29;20063;-84
2023/04/04 06:28:08;;;;;;;12.63;6.72;;;;;;;1.16;76.32;102914.03;4884292;29;20036;-86
2023/04/04 06:30:36;;;;;;;10.35;6.78;;;;;;;1.53;77.32;102915.34;4885313;29;20040;-85
2023/04/04 06:33:05;;;;;;;19.20;6.63;;;;;;;1.92;73.21;102917.56;4868294;29;20095;-85
2023/04/04 06:35:31;;;;;;;12.48;6.45;;;;;;;2.35;71.21;102920.84;4915125;29;20426;-81
2023/04/04 06:37:57;;;;;;;10.18;6.20;;;;;;;2.76;73.59;102918.78;4907551;29;20036;-81
2023/04/04 06:40:22;;;;;;;13.68;7.03;;;;;;;3.10;70.73;102925.72;4891940;29;20044;-80
2023/04/04 06:42:49;;;;;;;17.45;7.20;;;;;;;3.20;67.87;102922.78;4917278;29;20385;-81
2023/04/04 06:45:16;;;;;;;12.63;5.40;;;;;;;3.29;64.93;102927.59;4930250;29;20043;-82
2023/04/04 06:47:42;;;;;;;10.75;6.10;;;;;;;3.60;64.84;102922.25;4893297;29;20090;-81
2023/04/04 06:50:08;;;;;;;11.13;5.93;;;;;;;3.86;64.76;102912.28;4896091;29;20135;-81
2023/04/04 06:52:33;;;;;;;11.00;5.65;;;;;;;4.47;67.17;102935.09;4925067;29;20164;-82
2023/04/04 06:54:59;;;;;;;8.63;5.45;;;;;;;4.71;63.26;102929.25;4892462;29;20165;-83
2023/04/04 06:57:25;;;;;;;11.02;5.13;;;;;;;5.26;63.86;102919.56;4898977;29;20044;-84
2023/04/04 06:59:51;;;;;;;11.90;5.93;;;;;;;5.41;60.79;102928.03;4887855;29;20052;-82
2023/04/04 07:02:16;;;;;;;11.30;5.60;;;;;;;5.73;61.25;102907.69;4884717;29;20160;-83
2023/04/04 07:04:42;;;;;;;8.90;4.75;;;;;;;5.67;55.36;102923.94;4910219;29;20175;-84
2023/04/04 07:07:07;;;;;;;9.35;5.40;;;;;;;5.99;57.80;102928.72;4908406;29;20043;-83
2023/04/04 07:09:33;;;;;;;7.88;4.68;;;;;;;6.37;55.26;102939.78;4882334;29;20041;-84
2023/04/04 07:11:58;;;;;;;8.70;4.65;;;;;;;6.62;54.90;102933.81;4901520;29;20526;-84
2023/04/04 07:14:23;;;;;;;8.20;5.15;;;;;;;6.73;53.91;102934.22;4897705;29;20044;-84
2023/04/04 07:16:51;;;;;;;10.38;4.68;;;;;;;6.62;54.32;102935.53;4886207;29;20068;-85
2023/04/04 07:19:16;;;;;;;7.97;4.28;;;;;;;6.80;52.32;102931.03;4902189;29;20481;-85
2023/04/04 07:22:01;;;;;;;8.48;4.43;;;;;;;7.14;54.10;102936.56;4885630;29;20040;-84
2023/04/04 07:24:26;;;;;;;6.20;4.60;;;;;;;6.95;51.17;102925.47;4912345;29;20040;-84
2023/04/04 07:26:52;;;;;;;9.50;4.60;;;;;;;7.53;51.26;102930.97;4881537;29;20563;-85
2023/04/04 07:29:17;;;;;;;6.72;4.40;;;;;;;7.73;50.69;102926.44;4898796;29;20101;-84
2023/04/04 07:31:43;;;;;;;11.98;4.82;;;;;;;7.65;50.52;102923.59;4897698;29;20040;-83
2023/04/04 07:34:08;;;;;;;8.00;4.47;;;;;;;7.79;50.11;102921.44;4885276;29;20036;-84
2023/04/04 07:36:34;;;;;;;10.35;4.43;;;;;;;8.08;50.57;102913.66;4872310;29;20035;-84
2023/04/04 07:38:59;;;;;;;6.70;4.30;;;;;;;8.30;49.14;102916.13;4881771;29;20059;-85
2023/04/04 07:41:26;;;;;;;9.68;4.47;;;;;;;8.61;47.81;102904.00;4883078;29;20409;-83
2023/04/04 07:43:51;;;;;;;8.70;4.63;;;;;;;8.70;47.08;102915.56;4881472;29;20435;-84
2023/04/04 07:46:17;;;;;;;8.57;4.85;;;;;;;9.06;47.48;102920.09;4881482;29;20049;-84
2023/04/04 07:48:43;;;;;;;9.73;4.57;;;;;;;9.32;47.93;102916.47;4880904;29;20107;-85
2023/04/04 07:51:08;;;;;;;9.55;4.80;;;;;;;9.85;48.51;102923.00;4900077;29;20039;-83
2023/04/04 07:53:33;;;;;;;7.95;4.45;;;;;;;10.05;45.53;102921.75;4867023;29;20052;-84
2023/04/04 07:56:05;;;;;;;6.80;4.43;;;;;;;10.03;45.49;102920.84;4898402;29;20028;-85
2023/04/04 07:58:30;;;;;;;9.18;4.78;;;;;;;10.20;44.78;102916.00;4891581;29;20055;-84
2023/04/04 08:00:56;;;;;;;8.52;4.80;;;;;;;10.63;44.05;102921.34;4889458;29;20075;-85
2023/04/04 08:03:22;;;;;;;7.90;4.43;;;;;;;11.06;45.06;102913.47;4888031;29;20143;-84
2023/04/04 08:05:48;;;;;;;8.38;4.70;;;;;;;10.69;41.95;102918.84;4900387;29;20043;-84
2023/04/04 08:08:13;;;;;;;7.57;4.43;;;;;;;11.00;45.51;102922.09;4890273;29;20126;-85
2023/04/04 08:10:39;;;;;;;10.07;4.40;;;;;;;11.04;41.41;102913.44;4924870;29;20051;-85
2023/04/04 08:13:04;;;;;;;8.30;4.50;;;;;;;10.91;43.11;102916.66;4916535;29;20040;-84
2023/04/04 08:15:30;;;;;;;8.40;4.20;;;;;;;11.23;41.67;102912.06;4916725;29;20051;-84
2023/04/04 08:17:56;;;;;;;9.40;4.90;;;;;;;10.73;41.13;102930.28;4913097;29;20503;-86
2023/04/04 08:20:21;;;;;;;8.85;4.43;;;;;;;10.76;40.86;102925.13;4884685;29;20047;-81
2023/04/04 08:22:47;;;;;;;7.95;4.30;;;;;;;10.67;40.13;102931.03;4887601;29;20067;-82
2023/04/04 08:25:13;;;;;;;9.80;4.60;;;;;;;10.68;40.54;102930.19;4902631;29;20043;-81
2023/04/04 08:27:42;;;;;;;6.43;3.65;;;;;;;10.77;40.29;102924.25;4886653;29;20127;-85
2023/04/04 08:30:23;;;;;;;6.15;3.53;;;;;;;10.90;41.43;102920.13;4900757;29;20133;-83
2023/04/04 08:32:49;;;;;;;10.00;3.13;;;;;;;10.94;39.00;102916.72;4861237;29;20056;-84
2023/04/04 08:35:14;;;;;;;6.75;3.00;;;;;;;11.30;40.36;102915.66;4875245;29;20395;-85
2023/04/04 08:37:46;;;;;;;4.88;2.80;;;;;;;11.37;37.88;102917.53;4841426;29;20412;-85
2023/04/04 08:40:12;;;;;;;6.47;2.47;;;;;;;11.33;36.55;102914.84;4871728;29;20034;-85
2023/04/04 08:42:43;;;;;;;4.65;2.58;;;;;;;11.32;38.15;102907.81;4861503;29;20115;-84
2023/04/04 08:45:09;;;;;;;;;;;;;;;11.75;40.79;102914.72;4875341;29;20156;-84
2023/04/04 08:47:36;;;;;;;4.30;2.22;;;;;;;11.71;36.12;102912.88;4858553;29;20365;-85
2023/04/04 08:50:06;;;;;;;5.07;2.53;;;;;;;11.40;35.34;102907.09;4874577;29;20037;-84
2023/04/04 08:52:35;;;;;;;5.13;3.08;;;;;;;11.64;38.36;102904.88;4843682;29;20110;-84
2023/04/04 08:55:04;;;;;;;5.97;2.80;;;;;;;11.76;36.59;102900.69;4880908;29;20041;-84
2023/04/04 08:57:30;;;;;;;5.45;2.83;;;;;;;11.78;34.54;102898.13;4858883;29;20550;-84
2023/04/04 08:59:56;;;;;;;5.55;2.72;;;;;;;11.52;36.43;102871.41;4873139;29;20184;-84
2023/04/04 09:02:45;;;;;;;4.28;2.50;;;;;;;11.47;37.93;102897.59;4845541;29;20549;-84
2023/04/04 09:05:12;;;;;;;6.05;2.50;;;;;;;11.64;35.14;102899.63;4862979;29;20048;-84
2023/04/04 09:07:39;;;;;;;5.38;2.72;;;;;;;10.78;36.96;102910.28;4847989;29;20458;-85
2023/04/04 09:10:07;;;;;;;7.00;3.00;;;;;;;10.74;38.27;102909.31;4883549;29;20044;-86
2023/04/04 09:12:35;;;;;;;6.78;2.53;;;;;;;10.66;36.36;102905.69;4900809;29;20563;-84
2023/04/04 09:15:02;;;;;;;4.93;2.20;;;;;;;10.38;36.67;102899.81;4899809;29;20345;-83
2023/04/04 09:17:28;;;;;;;6.90;2.67;;;;;;;10.01;36.44;102901.59;4900525;29;20498;-85
2023/04/04 09:20:31;;;;;;;7.18;3.20;;;;;;;10.14;39.13;102908.00;4904627;29;20039;-84
2023/04/04 09:22:56;;;;;;;6.13;2.33;;;;;;;9.91;36.42;102903.94;4927224;29;20036;-83
2023/04/04 09:25:22;;;;;;;6.07;2.22;;;;;;;10.28;38.05;102913.56;4887597;29;20324;-84
2023/04/04 09:27:48;;;;;;;5.88;2.30;;;;;;;10.22;39.70;102906.44;4910518;29;20139;-84
2023/04/04 09:30:14;;;;;;;6.00;2.60;;;;;;;9.86;38.59;102902.09;4895643;29;20060;-83
2023/04/04 09:32:40;;;;;;;5.72;2.80;;;;;;;9.56;41.10;102904.84;4888072;29;20063;-81
2023/04/04 09:35:06;;;;;;;5.75;2.60;;;;;;;9.37;39.12;102903.50;4896687;29;20105;-82
2023/04/04 09:37:31;;;;;;;5.53;2.35;;;;;;;9.53;37.89;102899.53;4901913;29;20056;-82
2023/04/04 09:39:57;;;;;;;7.57;2.95;;;;;;;9.35;39.88;102895.59;4889528;29;20346;-83
2023/04/04 09:42:23;;;;;;;8.52;2.75;;;;;;;9.38;38.21;102904.38;4895667;29;20040;-83
2023/04/04 09:44:53;;;;;;;7.28;3.33;;;;;;;9.33;39.42;102894.66;4884671;29;20040;-83
2023/04/04 09:47:26;;;;;;;4.28;2.70;;;;;;;9.36;39.80;102896.47;4900320;29;20059;-82
2023/04/04 09:49:57;;;;;;;7.18;2.42;;;;;;;9.37;41.72;102898.25;4901196;29;20032;-83
2023/04/04 09:52:23;;;;;;;8.18;3.00;;;;;;;9.18;39.10;102891.66;4916160;29;20215;-82
2023/04/04 09:54:59;;;;;;;4.22;2.42;;;;;;;9.34;42.37;102891.22;4880660;29;20139;-83
2023/04/04 09:57:30;;;;;;;5.85;2.60;;;;;;;8.63;40.13;102878.81;4885268;29;20448;-82
2023/04/04 10:00:00;;;;;;;6.15;2.80;;;;;;;8.63;42.12;102891.88;4885026;29;20051;-82
2023/04/04 10:02:26;;;;;;;7.13;2.60;;;;;;;8.62;41.54;102883.97;4878640;29;20055;-83
2023/04/04 10:04:56;;;;;;;4.07;2.30;;;;;;;8.78;40.63;102880.09;4902520;29;20409;-83
2023/04/04 10:07:25;;;;;;;8.17;3.00;;;;;;;9.02;44.50;102885.09;4899530;29;20095;-83
2023/04/04 10:09:51;;;;;;;8.48;3.17;;;;;;;9.08;43.99;102881.78;4912829;29;20082;-83
2023/04/04 10:12:21;;;;;;;6.03;2.47;;;;;;;9.11;41.33;102884.50;4893524;29;20076;-82
2023/04/04 10:14:46;;;;;;;7.60;3.28;;;;;;;9.02;45.75;102879.88;4900780;29;20130;-83
2023/04/04 10:17:12;;;;;;;4.80;2.20;;;;;;;8.86;42.32;102886.41;4887615;29;20529;-80
2023/04/04 10:19:38;;;;;;;3.92;2.35;;;;;;;8.92;42.10;102877.84;4884192;29;20102;-81
2023/04/04 10:22:08;;;;;;;4.43;2.22;;;;;;;9.04;40.81;102877.28;4886691;29;20091;-82
2023/04/04 10:24:34;;;;;;;7.25;2.75;;;;;;;9.06;39.97;102871.25;4872116;29;20036;-81
2023/04/04 10:27:00;;;;;;;7.68;2.70;;;;;;;9.19;41.43;102872.47;4900203;29;20044;-81
2023/04/04 10:29:26;;;;;;;6.20;2.42;;;;;;;9.14;39.87;102867.13;4897080;29;20091;-83
2023/04/04 10:32:04;;;;;;;8.23;2.65;;;;;;;9.12;40.21;102870.56;4903399;29;20507;-79
2023/04/04 10:34:52;;;;;;;6.03;2.70;;;;;;;8.89;41.23;102860.34;4911621;29;20047;-82
2023/04/04 10:37:33;;;;;;;6.78;2.50;;;;;;;9.02;41.81;102869.41;4911064;29;20433;-82
2023/04/04 10:40:16;;;;;;;4.15;2.90;;;;;;;9.26;42.24;102861.34;4930517;29;20392;-80
2023/04/04 10:42:44;;;;;;;5.20;2.55;;;;;;;9.33;40.88;102876.34;4890627;29;20044;-81
2023/04/04 10:45:12;;;;;;;5.57;2.60;;;;;;;9.35;39.71;102861.59;4884917;29;20067;-83
2023/04/04 10:47:39;;;;;;;7.13;2.42;;;;;;;9.25;40.34;102869.16;4898705;29;20070;-81
2023/04/04 10:50:11;;;;;;;6.32;2.70;;;;;;;9.44;39.59;102857.41;4898677;29;20064;-82
2023/04/04 10:52:42;;;;;;;3.63;2.40;;;;;;;9.47;39.38;102850.53;4880192;29;20059;-82
2023/04/04 10:55:11;;;;;;;4.90;2.40;;;;;;;9.43;42.91;102846.06;4900567;29;20051;-83
2023/04/04 10:57:40;;;;;;;6.65;2.72;;;;;;;9.33;40.33;102847.56;4900231;29;20409;-79
2023/04/04 11:00:11;;;;;;;4.87;2.43;;;;;;;9.26;38.86;102840.41;4900418;29;20042;-83
2023/04/04 11:02:52;;;;;;;7.78;3.05;;;;;;;9.47;41.12;102847.06;4900481;29;20125;-80
2023/04/04 11:05:40;;;;;;;;;;;;;;;9.54;40.70;102851.59;4911828;29;20074;-80
2023/04/04 11:08:09;;;;;;;4.70;2.38;;;;;;;9.27;38.16;102844.81;4897091;29;19915;-82
2023/04/04 11:10:42;;;;;;;8.75;2.60;;;;;;;9.23;41.00;102845.56;4889252;29;20035;-79
2023/04/04 11:13:11;;;;;;;5.38;2.50;;;;;;;9.23;39.78;102836.84;4910576;29;20126;-82
2023/04/04 11:16:02;;;;;;;5.82;2.30;;;;;;;9.34;39.81;102841.50;4904324;29;20040;-83
2023/04/04 11:18:31;;;;;;;5.05;2.63;;;;;;;9.42;39.54;102832.94;4910663;29;20378;-82
2023/04/04 11:21:00;;;;;;;5.57;2.33;;;;;;;9.77;39.99;102819.81;4909875;29;20106;-83
2023/04/04 11:23:26;;;;;;;6.05;2.78;;;;;;;9.88;39.74;102818.34;4893304;29;20051;-82
2023/04/04 11:25:55;;;;;;;7.25;2.50;;;;;;;9.55;38.72;102829.78;4879439;29;20348;-79
2023/04/04 11:28:42;;;;;;;3.75;2.22;;;;;;;9.35;37.13;102837.13;4901011;29;20070;-79